sensor_id;sensor_type;location;lat;lon;timestamp;P1;durP1;ratioP1;P2;durP2;ratioP2
11185;SDS011;5649;52.422;13.754;2022-11-15T00:02:22;26.93;;;13.53;;
11185;SDS011;5649;52.422;13.754;2022-11-15T00:04:48;34.90;;;14.90;;
11185;SDS011;5649;52.422;13.754;2022-11-15T00:07:14;29.47;;;14.00;;
11185;SDS011;5649;52.422;13.754;2022-11-15T00:09:40;31.60;;;14.40;;
11185;SDS011;5649;52.422;13.754;2022-11-15T00:12:06;32.33;;;14.97;;
11185;SDS011;5649;52.422;13.754;2022-11-15T00:14:32;29.93;;;13.80;;
11185;SDS011;5649;52.422;13.754;2022-11-15T00:16:58;34.23;;;15.10;;
11185;SDS011;5649;52.422;13.754;2022-11-15T00:19:24;25.80;;;14.23;;
11185;SDS011;5649;52.422;13.754;2022-11-15T00:21:50;32.63;;;15.87;;
11185;SDS011;5649;52.422;13.754;2022-11-15T00:24:16;27.60;;;14.40;;
11185;SDS011;5649;52.422;13.754;2022-11-15T00:26:42;37.37;;;13.97;;
11185;SDS011;5649;52.422;13.754;2022-11-15T00:29:08;33.63;;;13.40;;
11185;SDS011;5649;52.422;13.754;2022-11-15T00:31:34;32.67;;;14.67;;
11185;SDS011;5649;52.422;13.754;2022-11-15T00:34:00;27.77;;;12.63;;
11185;SDS011;5649;52.422;13.754;2022-11-15T00:36:26;26.73;;;13.17;;
11185;SDS011;5649;52.422;13.754;2022-11-15T00:38:52;35.27;;;15.50;;
11185;SDS011;5649;52.422;13.754;2022-11-15T00:41:18;29.17;;;13.70;;
11185;SDS011;5649;52.422;13.754;2022-11-15T00:43:44;29.37;;;14.30;;
11185;SDS011;5649;52.422;13.754;2022-11-15T00:46:10;31.23;;;13.50;;
11185;SDS011;5649;52.422;13.754;2022-11-15T00:48:36;28.73;;;14.23;;
11185;SDS011;5649;52.422;13.754;2022-11-15T00:51:02;32.30;;;15.00;;
11185;SDS011;5649;52.422;13.754;2022-11-15T00:53:28;33.80;;;14.47;;
11185;SDS011;5649;52.422;13.754;2022-11-15T00:55:54;29.63;;;13.00;;
11185;SDS011;5649;52.422;13.754;2022-11-15T00:58:20;31.40;;;14.80;;
11185;SDS011;5649;52.422;13.754;2022-11-15T01:00:46;28.90;;;13.57;;
11185;SDS011;5649;52.422;13.754;2022-11-15T01:03:12;29.30;;;13.13;;
11185;SDS011;5649;52.422;13.754;2022-11-15T01:05:38;35.73;;;15.20;;
11185;SDS011;5649;52.422;13.754;2022-11-15T01:08:04;29.53;;;13.67;;
11185;SDS011;5649;52.422;13.754;2022-11-15T01:10:30;34.07;;;13.40;;
11185;SDS011;5649;52.422;13.754;2022-11-15T01:12:56;29.57;;;14.67;;
11185;SDS011;5649;52.422;13.754;2022-11-15T01:15:23;28.97;;;14.30;;
11185;SDS011;5649;52.422;13.754;2022-11-15T01:17:49;47.33;;;14.47;;
11185;SDS011;5649;52.422;13.754;2022-11-15T01:20:15;29.43;;;13.57;;
11185;SDS011;5649;52.422;13.754;2022-11-15T01:22:41;28.53;;;13.93;;
11185;SDS011;5649;52.422;13.754;2022-11-15T01:25:07;32.03;;;13.30;;
11185;SDS011;5649;52.422;13.754;2022-11-15T01:27:33;25.60;;;13.57;;
11185;SDS011;5649;52.422;13.754;2022-11-15T01:29:59;29.27;;;11.93;;
11185;SDS011;5649;52.422;13.754;2022-11-15T01:32:25;28.23;;;13.00;;
11185;SDS011;5649;52.422;13.754;2022-11-15T01:34:51;30.33;;;13.27;;
11185;SDS011;5649;52.422;13.754;2022-11-15T01:37:17;27.47;;;13.60;;
11185;SDS011;5649;52.422;13.754;2022-11-15T01:39:43;20.63;;;12.07;;
11185;SDS011;5649;52.422;13.754;2022-11-15T01:42:12;31.27;;;14.50;;
11185;SDS011;5649;52.422;13.754;2022-11-15T01:44:43;28.23;;;12.93;;
11185;SDS011;5649;52.422;13.754;2022-11-15T01:47:19;27.80;;;14.23;;
11185;SDS011;5649;52.422;13.754;2022-11-15T01:52:19;37.20;;;16.20;;
11185;SDS011;5649;52.422;13.754;2022-11-15T01:54:47;28.33;;;12.57;;
11185;SDS011;5649;52.422;13.754;2022-11-15T01:57:13;30.93;;;15.13;;
11185;SDS011;5649;52.422;13.754;2022-11-15T01:59:40;25.50;;;13.30;;
11185;SDS011;5649;52.422;13.754;2022-11-15T02:02:08;25.53;;;12.00;;
11185;SDS011;5649;52.422;13.754;2022-11-15T02:04:36;25.00;;;12.77;;
11185;SDS011;5649;52.422;13.754;2022-11-15T02:07:03;28.93;;;13.57;;
11185;SDS011;5649;52.422;13.754;2022-11-15T02:09:30;27.33;;;13.53;;
11185;SDS011;5649;52.422;13.754;2022-11-15T02:11:56;28.33;;;13.73;;
11185;SDS011;5649;52.422;13.754;2022-11-15T02:14:22;26.20;;;14.13;;
11185;SDS011;5649;52.422;13.754;2022-11-15T02:16:54;26.13;;;13.43;;
11185;SDS011;5649;52.422;13.754;2022-11-15T02:27:18;21.50;;;12.77;;
11185;SDS011;5649;52.422;13.754;2022-11-15T02:32:35;27.03;;;12.90;;
11185;SDS011;5649;52.422;13.754;2022-11-15T02:35:29;30.53;;;12.73;;
11185;SDS011;5649;52.422;13.754;2022-11-15T02:38:05;36.60;;;13.27;;
11185;SDS011;5649;52.422;13.754;2022-11-15T02:40:41;25.93;;;12.37;;
11185;SDS011;5649;52.422;13.754;2022-11-15T02:43:12;34.67;;;14.07;;
11185;SDS011;5649;52.422;13.754;2022-11-15T02:46:00;28.00;;;13.80;;
11185;SDS011;5649;52.422;13.754;2022-11-15T02:48:27;25.77;;;12.97;;
11185;SDS011;5649;52.422;13.754;2022-11-15T02:50:54;28.50;;;12.83;;
11185;SDS011;5649;52.422;13.754;2022-11-15T02:53:24;23.10;;;12.57;;
11185;SDS011;5649;52.422;13.754;2022-11-15T02:55:50;24.57;;;13.80;;
11185;SDS011;5649;52.422;13.754;2022-11-15T03:03:56;28.80;;;13.10;;
11185;SDS011;5649;52.422;13.754;2022-11-15T03:06:28;30.73;;;13.60;;
11185;SDS011;5649;52.422;13.754;2022-11-15T03:09:19;40.00;;;13.97;;
11185;SDS011;5649;52.422;13.754;2022-11-15T03:11:50;21.43;;;12.47;;
11185;SDS011;5649;52.422;13.754;2022-11-15T03:16:51;33.23;;;15.13;;
11185;SDS011;5649;52.422;13.754;2022-11-15T03:21:57;25.20;;;13.07;;
11185;SDS011;5649;52.422;13.754;2022-11-15T03:24:24;24.63;;;13.47;;
11185;SDS011;5649;52.422;13.754;2022-11-15T03:26:50;22.90;;;12.47;;
11185;SDS011;5649;52.422;13.754;2022-11-15T03:29:19;35.00;;;14.97;;
11185;SDS011;5649;52.422;13.754;2022-11-15T03:31:53;32.47;;;13.63;;
11185;SDS011;5649;52.422;13.754;2022-11-15T03:34:24;23.53;;;12.27;;
11185;SDS011;5649;52.422;13.754;2022-11-15T03:36:52;32.27;;;13.40;;
11185;SDS011;5649;52.422;13.754;2022-11-15T03:39:18;21.97;;;12.73;;
11185;SDS011;5649;52.422;13.754;2022-11-15T03:47:15;39.10;;;13.97;;
11185;SDS011;5649;52.422;13.754;2022-11-15T03:49:43;24.17;;;12.30;;
11185;SDS011;5649;52.422;13.754;2022-11-15T03:52:10;21.17;;;12.40;;
11185;SDS011;5649;52.422;13.754;2022-11-15T03:54:36;20.73;;;11.83;;
11185;SDS011;5649;52.422;13.754;2022-11-15T03:57:02;23.80;;;13.00;;
11185;SDS011;5649;52.422;13.754;2022-11-15T03:59:28;29.63;;;13.93;;
11185;SDS011;5649;52.422;13.754;2022-11-15T04:01:54;32.53;;;12.10;;
11185;SDS011;5649;52.422;13.754;2022-11-15T04:04:20;21.10;;;10.47;;
11185;SDS011;5649;52.422;13.754;2022-11-15T04:06:47;21.93;;;11.20;;
11185;SDS011;5649;52.422;13.754;2022-11-15T04:09:13;26.73;;;11.90;;
11185;SDS011;5649;52.422;13.754;2022-11-15T04:11:39;22.27;;;11.97;;
11185;SDS011;5649;52.422;13.754;2022-11-15T04:14:05;26.93;;;12.80;;
11185;SDS011;5649;52.422;13.754;2022-11-15T04:16:31;22.03;;;12.13;;
11185;SDS011;5649;52.422;13.754;2022-11-15T04:18:57;24.80;;;12.47;;
11185;SDS011;5649;52.422;13.754;2022-11-15T04:21:41;26.10;;;11.50;;
11185;SDS011;5649;52.422;13.754;2022-11-15T04:24:26;31.40;;;12.67;;
11185;SDS011;5649;52.422;13.754;2022-11-15T04:26:52;22.17;;;11.10;;
11185;SDS011;5649;52.422;13.754;2022-11-15T04:29:18;22.43;;;12.63;;
11185;SDS011;5649;52.422;13.754;2022-11-15T04:31:59;22.77;;;10.77;;
11185;SDS011;5649;52.422;13.754;2022-11-15T04:34:25;21.27;;;11.73;;
11185;SDS011;5649;52.422;13.754;2022-11-15T04:36:51;22.10;;;11.90;;
11185;SDS011;5649;52.422;13.754;2022-11-15T04:39:35;21.97;;;11.30;;
11185;SDS011;5649;52.422;13.754;2022-11-15T04:42:02;24.63;;;11.77;;
11185;SDS011;5649;52.422;13.754;2022-11-15T04:44:28;24.67;;;11.23;;
11185;SDS011;5649;52.422;13.754;2022-11-15T04:46:54;28.17;;;14.70;;
11185;SDS011;5649;52.422;13.754;2022-11-15T04:49:20;27.43;;;13.93;;
11185;SDS011;5649;52.422;13.754;2022-11-15T04:51:46;28.23;;;12.57;;
11185;SDS011;5649;52.422;13.754;2022-11-15T04:54:12;24.70;;;14.07;;
11185;SDS011;5649;52.422;13.754;2022-11-15T04:56:38;20.97;;;11.47;;
11185;SDS011;5649;52.422;13.754;2022-11-15T04:59:04;20.80;;;12.87;;
11185;SDS011;5649;52.422;13.754;2022-11-15T05:01:30;19.83;;;10.80;;
11185;SDS011;5649;52.422;13.754;2022-11-15T05:03:56;22.37;;;12.17;;
11185;SDS011;5649;52.422;13.754;2022-11-15T05:06:41;28.60;;;11.67;;
11185;SDS011;5649;52.422;13.754;2022-11-15T05:09:07;20.07;;;11.13;;
11185;SDS011;5649;52.422;13.754;2022-11-15T05:11:33;27.17;;;11.37;;
11185;SDS011;5649;52.422;13.754;2022-11-15T05:13:59;24.00;;;12.03;;
11185;SDS011;5649;52.422;13.754;2022-11-15T05:16:25;22.70;;;11.20;;
11185;SDS011;5649;52.422;13.754;2022-11-15T05:18:52;19.67;;;10.90;;
11185;SDS011;5649;52.422;13.754;2022-11-15T05:21:19;25.77;;;10.70;;
11185;SDS011;5649;52.422;13.754;2022-11-15T05:23:45;25.10;;;11.73;;
11185;SDS011;5649;52.422;13.754;2022-11-15T05:26:12;26.30;;;12.47;;
11185;SDS011;5649;52.422;13.754;2022-11-15T05:28:38;28.37;;;12.40;;
11185;SDS011;5649;52.422;13.754;2022-11-15T05:31:09;27.90;;;12.80;;
11185;SDS011;5649;52.422;13.754;2022-11-15T05:33:35;28.93;;;11.87;;
11185;SDS011;5649;52.422;13.754;2022-11-15T05:36:09;22.30;;;12.07;;
11185;SDS011;5649;52.422;13.754;2022-11-15T05:38:37;26.63;;;11.90;;
11185;SDS011;5649;52.422;13.754;2022-11-15T05:41:04;23.20;;;10.73;;
11185;SDS011;5649;52.422;13.754;2022-11-15T05:43:30;23.23;;;12.67;;
11185;SDS011;5649;52.422;13.754;2022-11-15T05:45:58;24.07;;;12.40;;
11185;SDS011;5649;52.422;13.754;2022-11-15T05:48:25;27.13;;;13.80;;
11185;SDS011;5649;52.422;13.754;2022-11-15T05:50:51;22.53;;;12.50;;
11185;SDS011;5649;52.422;13.754;2022-11-15T05:53:19;25.33;;;12.63;;
11185;SDS011;5649;52.422;13.754;2022-11-15T05:55:46;25.47;;;12.17;;
11185;SDS011;5649;52.422;13.754;2022-11-15T05:58:12;25.30;;;12.40;;
11185;SDS011;5649;52.422;13.754;2022-11-15T06:00:38;23.67;;;13.10;;
11185;SDS011;5649;52.422;13.754;2022-11-15T06:03:05;23.13;;;12.07;;
11185;SDS011;5649;52.422;13.754;2022-11-15T06:05:31;21.30;;;10.93;;
11185;SDS011;5649;52.422;13.754;2022-11-15T06:07:57;26.70;;;12.40;;
11185;SDS011;5649;52.422;13.754;2022-11-15T06:10:24;59.37;;;12.87;;
11185;SDS011;5649;52.422;13.754;2022-11-15T06:13:03;25.77;;;11.77;;
11185;SDS011;5649;52.422;13.754;2022-11-15T06:15:29;26.70;;;12.00;;
11185;SDS011;5649;52.422;13.754;2022-11-15T06:17:58;21.80;;;10.77;;
11185;SDS011;5649;52.422;13.754;2022-11-15T06:20:25;37.50;;;13.00;;
11185;SDS011;5649;52.422;13.754;2022-11-15T06:22:51;18.60;;;10.00;;
11185;SDS011;5649;52.422;13.754;2022-11-15T06:25:21;34.93;;;11.37;;
11185;SDS011;5649;52.422;13.754;2022-11-15T06:27:51;25.10;;;11.90;;
11185;SDS011;5649;52.422;13.754;2022-11-15T06:30:17;23.63;;;13.00;;
11185;SDS011;5649;52.422;13.754;2022-11-15T06:32:43;32.30;;;11.53;;
11185;SDS011;5649;52.422;13.754;2022-11-15T06:35:09;21.23;;;11.27;;
11185;SDS011;5649;52.422;13.754;2022-11-15T06:37:35;34.67;;;12.80;;
11185;SDS011;5649;52.422;13.754;2022-11-15T06:40:01;25.70;;;12.77;;
11185;SDS011;5649;52.422;13.754;2022-11-15T06:42:27;21.33;;;11.70;;
11185;SDS011;5649;52.422;13.754;2022-11-15T06:44:53;22.17;;;11.40;;
11185;SDS011;5649;52.422;13.754;2022-11-15T06:47:19;23.13;;;11.87;;
11185;SDS011;5649;52.422;13.754;2022-11-15T06:49:45;31.17;;;12.70;;
11185;SDS011;5649;52.422;13.754;2022-11-15T06:52:11;24.43;;;12.47;;
11185;SDS011;5649;52.422;13.754;2022-11-15T06:54:37;30.10;;;12.10;;
11185;SDS011;5649;52.422;13.754;2022-11-15T06:57:04;25.70;;;12.20;;
11185;SDS011;5649;52.422;13.754;2022-11-15T06:59:30;25.73;;;12.07;;
11185;SDS011;5649;52.422;13.754;2022-11-15T07:01:56;53.53;;;20.30;;
11185;SDS011;5649;52.422;13.754;2022-11-15T07:04:22;34.10;;;14.20;;
11185;SDS011;5649;52.422;13.754;2022-11-15T07:06:48;29.00;;;12.30;;
11185;SDS011;5649;52.422;13.754;2022-11-15T07:09:14;20.73;;;11.10;;
11185;SDS011;5649;52.422;13.754;2022-11-15T07:11:40;21.10;;;11.77;;
11185;SDS011;5649;52.422;13.754;2022-11-15T07:14:06;33.87;;;14.03;;
11185;SDS011;5649;52.422;13.754;2022-11-15T07:16:32;24.50;;;12.73;;
11185;SDS011;5649;52.422;13.754;2022-11-15T07:18:58;19.13;;;11.43;;
11185;SDS011;5649;52.422;13.754;2022-11-15T07:21:24;23.77;;;10.73;;
11185;SDS011;5649;52.422;13.754;2022-11-15T07:23:50;28.53;;;11.93;;
11185;SDS011;5649;52.422;13.754;2022-11-15T07:26:16;26.97;;;12.77;;
11185;SDS011;5649;52.422;13.754;2022-11-15T07:28:42;21.20;;;12.17;;
11185;SDS011;5649;52.422;13.754;2022-11-15T07:31:08;23.10;;;13.07;;
11185;SDS011;5649;52.422;13.754;2022-11-15T07:33:35;19.80;;;11.90;;
11185;SDS011;5649;52.422;13.754;2022-11-15T07:36:02;21.93;;;12.23;;
11185;SDS011;5649;52.422;13.754;2022-11-15T07:38:29;25.30;;;13.70;;
11185;SDS011;5649;52.422;13.754;2022-11-15T07:40:55;33.13;;;15.43;;
11185;SDS011;5649;52.422;13.754;2022-11-15T07:43:23;39.40;;;14.10;;
11185;SDS011;5649;52.422;13.754;2022-11-15T07:45:49;50.70;;;27.00;;
11185;SDS011;5649;52.422;13.754;2022-11-15T07:48:15;67.03;;;31.63;;
11185;SDS011;5649;52.422;13.754;2022-11-15T07:50:41;53.03;;;30.27;;
11185;SDS011;5649;52.422;13.754;2022-11-15T07:53:08;53.40;;;23.70;;
11185;SDS011;5649;52.422;13.754;2022-11-15T07:55:34;40.00;;;17.53;;
11185;SDS011;5649;52.422;13.754;2022-11-15T07:58:00;35.80;;;20.50;;
11185;SDS011;5649;52.422;13.754;2022-11-15T08:00:27;42.83;;;15.00;;
11185;SDS011;5649;52.422;13.754;2022-11-15T08:02:53;37.97;;;19.80;;
11185;SDS011;5649;52.422;13.754;2022-11-15T08:05:26;58.67;;;22.93;;
11185;SDS011;5649;52.422;13.754;2022-11-15T08:07:54;40.53;;;22.20;;
11185;SDS011;5649;52.422;13.754;2022-11-15T08:10:20;49.03;;;22.83;;
11185;SDS011;5649;52.422;13.754;2022-11-15T08:12:46;32.10;;;16.77;;
11185;SDS011;5649;52.422;13.754;2022-11-15T08:15:12;30.27;;;13.90;;
11185;SDS011;5649;52.422;13.754;2022-11-15T08:17:38;26.17;;;14.13;;
11185;SDS011;5649;52.422;13.754;2022-11-15T08:20:04;26.87;;;12.57;;
11185;SDS011;5649;52.422;13.754;2022-11-15T08:22:30;32.27;;;13.50;;
11185;SDS011;5649;52.422;13.754;2022-11-15T08:24:57;33.43;;;15.37;;
11185;SDS011;5649;52.422;13.754;2022-11-15T08:27:23;39.53;;;14.23;;
11185;SDS011;5649;52.422;13.754;2022-11-15T08:29:49;28.97;;;12.90;;
11185;SDS011;5649;52.422;13.754;2022-11-15T08:32:15;38.67;;;14.73;;
11185;SDS011;5649;52.422;13.754;2022-11-15T08:34:42;30.60;;;13.37;;
11185;SDS011;5649;52.422;13.754;2022-11-15T08:37:08;27.10;;;14.27;;
11185;SDS011;5649;52.422;13.754;2022-11-15T08:39:34;30.97;;;14.60;;
11185;SDS011;5649;52.422;13.754;2022-11-15T08:42:00;43.37;;;14.23;;
11185;SDS011;5649;52.422;13.754;2022-11-15T08:44:26;30.50;;;14.87;;
11185;SDS011;5649;52.422;13.754;2022-11-15T08:46:52;28.30;;;13.17;;
11185;SDS011;5649;52.422;13.754;2022-11-15T08:49:19;27.60;;;14.47;;
11185;SDS011;5649;52.422;13.754;2022-11-15T08:51:45;32.33;;;17.10;;
11185;SDS011;5649;52.422;13.754;2022-11-15T08:54:11;28.20;;;14.97;;
11185;SDS011;5649;52.422;13.754;2022-11-15T08:56:37;28.70;;;14.93;;
11185;SDS011;5649;52.422;13.754;2022-11-15T08:59:03;39.50;;;15.53;;
11185;SDS011;5649;52.422;13.754;2022-11-15T09:01:29;35.20;;;14.60;;
11185;SDS011;5649;52.422;13.754;2022-11-15T09:03:55;34.70;;;14.83;;
11185;SDS011;5649;52.422;13.754;2022-11-15T09:06:21;29.60;;;15.17;;
11185;SDS011;5649;52.422;13.754;2022-11-15T09:08:47;24.10;;;13.73;;
11185;SDS011;5649;52.422;13.754;2022-11-15T09:11:13;29.20;;;15.83;;
11185;SDS011;5649;52.422;13.754;2022-11-15T09:13:41;34.33;;;14.50;;
11185;SDS011;5649;52.422;13.754;2022-11-15T09:16:07;29.83;;;15.17;;
11185;SDS011;5649;52.422;13.754;2022-11-15T09:18:33;27.43;;;14.03;;
11185;SDS011;5649;52.422;13.754;2022-11-15T09:21:00;25.83;;;13.07;;
11185;SDS011;5649;52.422;13.754;2022-11-15T09:23:27;31.03;;;14.60;;
11185;SDS011;5649;52.422;13.754;2022-11-15T09:25:58;23.80;;;12.77;;
11185;SDS011;5649;52.422;13.754;2022-11-15T09:28:25;29.23;;;14.57;;
11185;SDS011;5649;52.422;13.754;2022-11-15T09:30:51;24.37;;;12.87;;
11185;SDS011;5649;52.422;13.754;2022-11-15T09:33:17;29.83;;;15.10;;
11185;SDS011;5649;52.422;13.754;2022-11-15T09:35:43;28.37;;;14.30;;
11185;SDS011;5649;52.422;13.754;2022-11-15T09:38:09;29.00;;;14.73;;
11185;SDS011;5649;52.422;13.754;2022-11-15T09:40:36;35.17;;;14.60;;
11185;SDS011;5649;52.422;13.754;2022-11-15T09:45:31;28.93;;;16.60;;
11185;SDS011;5649;52.422;13.754;2022-11-15T09:48:08;36.37;;;15.10;;
11185;SDS011;5649;52.422;13.754;2022-11-15T09:50:39;26.47;;;12.87;;
11185;SDS011;5649;52.422;13.754;2022-11-15T09:53:09;28.37;;;12.20;;
11185;SDS011;5649;52.422;13.754;2022-11-15T09:55:40;33.23;;;15.10;;
11185;SDS011;5649;52.422;13.754;2022-11-15T10:01:14;25.50;;;13.77;;
11185;SDS011;5649;52.422;13.754;2022-11-15T10:03:42;33.23;;;13.50;;
11185;SDS011;5649;52.422;13.754;2022-11-15T10:06:14;39.00;;;12.20;;
11185;SDS011;5649;52.422;13.754;2022-11-15T10:11:34;25.93;;;13.50;;
11185;SDS011;5649;52.422;13.754;2022-11-15T10:14:02;30.73;;;11.03;;
11185;SDS011;5649;52.422;13.754;2022-11-15T10:21:34;25.83;;;13.27;;
11185;SDS011;5649;52.422;13.754;2022-11-15T10:24:10;22.20;;;11.47;;
11185;SDS011;5649;52.422;13.754;2022-11-15T10:26:36;18.03;;;11.20;;
11185;SDS011;5649;52.422;13.754;2022-11-15T10:29:02;20.00;;;12.70;;
11185;SDS011;5649;52.422;13.754;2022-11-15T10:31:28;32.93;;;12.73;;
11185;SDS011;5649;52.422;13.754;2022-11-15T10:34:11;21.67;;;10.27;;
11185;SDS011;5649;52.422;13.754;2022-11-15T10:36:38;25.17;;;11.17;;
11185;SDS011;5649;52.422;13.754;2022-11-15T10:39:04;25.03;;;12.30;;
11185;SDS011;5649;52.422;13.754;2022-11-15T10:41:31;33.10;;;13.13;;
11185;SDS011;5649;52.422;13.754;2022-11-15T10:44:07;19.87;;;9.90;;
11185;SDS011;5649;52.422;13.754;2022-11-15T10:46:35;15.60;;;9.03;;
11185;SDS011;5649;52.422;13.754;2022-11-15T10:51:49;15.80;;;9.43;;
11185;SDS011;5649;52.422;13.754;2022-11-15T10:56:53;32.77;;;12.47;;
11185;SDS011;5649;52.422;13.754;2022-11-15T10:59:28;18.07;;;10.20;;
11185;SDS011;5649;52.422;13.754;2022-11-15T11:01:54;14.80;;;8.67;;
11185;SDS011;5649;52.422;13.754;2022-11-15T11:04:20;18.87;;;10.00;;
11185;SDS011;5649;52.422;13.754;2022-11-15T11:06:47;15.03;;;9.10;;
11185;SDS011;5649;52.422;13.754;2022-11-15T11:09:34;16.20;;;9.50;;
11185;SDS011;5649;52.422;13.754;2022-11-15T11:12:04;16.57;;;8.70;;
11185;SDS011;5649;52.422;13.754;2022-11-15T11:14:34;14.00;;;8.43;;
11185;SDS011;5649;52.422;13.754;2022-11-15T11:19:33;16.00;;;9.23;;
11185;SDS011;5649;52.422;13.754;2022-11-15T11:36:55;14.87;;;8.47;;
11185;SDS011;5649;52.422;13.754;2022-11-15T11:46:49;19.70;;;7.77;;
11185;SDS011;5649;52.422;13.754;2022-11-15T11:49:23;16.77;;;7.97;;
11185;SDS011;5649;52.422;13.754;2022-11-15T11:51:53;14.00;;;8.27;;
11185;SDS011;5649;52.422;13.754;2022-11-15T11:54:55;25.20;;;6.77;;
11185;SDS011;5649;52.422;13.754;2022-11-15T11:57:16;24.20;;;7.27;;
11185;SDS011;5649;52.422;13.754;2022-11-15T11:59:48;16.83;;;8.40;;
11185;SDS011;5649;52.422;13.754;2022-11-15T12:02:21;13.90;;;7.87;;
11185;SDS011;5649;52.422;13.754;2022-11-15T12:04:51;12.83;;;7.50;;
11185;SDS011;5649;52.422;13.754;2022-11-15T12:09:48;18.00;;;9.00;;
11185;SDS011;5649;52.422;13.754;2022-11-15T12:15:04;13.53;;;7.13;;
11185;SDS011;5649;52.422;13.754;2022-11-15T12:17:36;17.47;;;7.37;;
11185;SDS011;5649;52.422;13.754;2022-11-15T12:20:04;13.00;;;6.77;;
11185;SDS011;5649;52.422;13.754;2022-11-15T12:22:40;12.87;;;6.97;;
11185;SDS011;5649;52.422;13.754;2022-11-15T12:25:08;13.97;;;6.60;;
11185;SDS011;5649;52.422;13.754;2022-11-15T12:27:41;25.77;;;6.90;;
11185;SDS011;5649;52.422;13.754;2022-11-15T12:30:12;10.10;;;5.90;;
11185;SDS011;5649;52.422;13.754;2022-11-15T12:32:39;9.53;;;6.13;;
11185;SDS011;5649;52.422;13.754;2022-11-15T12:35:19;10.07;;;6.27;;
11185;SDS011;5649;52.422;13.754;2022-11-15T12:37:50;11.80;;;6.80;;
11185;SDS011;5649;52.422;13.754;2022-11-15T12:47:55;9.57;;;6.00;;
11185;SDS011;5649;52.422;13.754;2022-11-15T12:56:24;12.03;;;5.93;;
11185;SDS011;5649;52.422;13.754;2022-11-15T13:06:43;14.27;;;6.47;;
11185;SDS011;5649;52.422;13.754;2022-11-15T13:11:55;11.20;;;6.30;;
11185;SDS011;5649;52.422;13.754;2022-11-15T13:22:25;10.30;;;6.73;;
11185;SDS011;5649;52.422;13.754;2022-11-15T13:27:55;20.90;;;7.20;;
11185;SDS011;5649;52.422;13.754;2022-11-15T13:30:27;12.30;;;6.87;;
11185;SDS011;5649;52.422;13.754;2022-11-15T13:32:54;9.80;;;6.57;;
11185;SDS011;5649;52.422;13.754;2022-11-15T13:35:22;13.13;;;6.40;;
11185;SDS011;5649;52.422;13.754;2022-11-15T13:37:49;10.27;;;6.60;;
11185;SDS011;5649;52.422;13.754;2022-11-15T13:42:41;10.60;;;6.50;;
11185;SDS011;5649;52.422;13.754;2022-11-15T13:45:13;14.87;;;7.03;;
11185;SDS011;5649;52.422;13.754;2022-11-15T13:47:39;8.63;;;6.10;;
11185;SDS011;5649;52.422;13.754;2022-11-15T13:50:05;14.33;;;7.03;;
11185;SDS011;5649;52.422;13.754;2022-11-15T13:52:33;13.13;;;6.13;;
11185;SDS011;5649;52.422;13.754;2022-11-15T13:57:35;15.20;;;7.00;;
11185;SDS011;5649;52.422;13.754;2022-11-15T14:00:05;13.23;;;6.83;;
11185;SDS011;5649;52.422;13.754;2022-11-15T14:02:33;12.63;;;6.13;;
11185;SDS011;5649;52.422;13.754;2022-11-15T14:05:02;17.83;;;7.50;;
11185;SDS011;5649;52.422;13.754;2022-11-15T14:07:28;10.60;;;6.07;;
11185;SDS011;5649;52.422;13.754;2022-11-15T14:09:55;14.53;;;7.33;;
11185;SDS011;5649;52.422;13.754;2022-11-15T14:12:23;12.93;;;6.90;;
11185;SDS011;5649;52.422;13.754;2022-11-15T14:14:50;8.30;;;5.60;;
11185;SDS011;5649;52.422;13.754;2022-11-15T14:19:55;20.17;;;10.70;;
11185;SDS011;5649;52.422;13.754;2022-11-15T14:22:22;20.87;;;7.57;;
11185;SDS011;5649;52.422;13.754;2022-11-15T14:30:33;13.10;;;5.90;;
11185;SDS011;5649;52.422;13.754;2022-11-15T14:33:00;46.87;;;6.73;;
11185;SDS011;5649;52.422;13.754;2022-11-15T14:35:27;11.77;;;6.53;;
11185;SDS011;5649;52.422;13.754;2022-11-15T14:37:53;12.90;;;7.27;;
11185;SDS011;5649;52.422;13.754;2022-11-15T14:40:20;9.53;;;6.30;;
11185;SDS011;5649;52.422;13.754;2022-11-15T14:42:47;8.67;;;5.63;;
11185;SDS011;5649;52.422;13.754;2022-11-15T14:45:14;12.90;;;7.33;;
11185;SDS011;5649;52.422;13.754;2022-11-15T14:47:41;17.73;;;6.43;;
11185;SDS011;5649;52.422;13.754;2022-11-15T14:50:10;11.70;;;5.87;;
11185;SDS011;5649;52.422;13.754;2022-11-15T14:52:37;12.40;;;6.80;;
11185;SDS011;5649;52.422;13.754;2022-11-15T14:55:04;13.47;;;6.73;;
11185;SDS011;5649;52.422;13.754;2022-11-15T14:57:36;18.07;;;7.40;;
11185;SDS011;5649;52.422;13.754;2022-11-15T15:00:02;26.93;;;7.07;;
11185;SDS011;5649;52.422;13.754;2022-11-15T15:02:28;17.33;;;6.47;;
11185;SDS011;5649;52.422;13.754;2022-11-15T15:04:54;13.60;;;6.67;;
11185;SDS011;5649;52.422;13.754;2022-11-15T15:07:21;12.37;;;6.10;;
11185;SDS011;5649;52.422;13.754;2022-11-15T15:09:47;15.37;;;7.20;;
11185;SDS011;5649;52.422;13.754;2022-11-15T15:12:14;17.93;;;7.70;;
11185;SDS011;5649;52.422;13.754;2022-11-15T15:14:41;18.77;;;9.17;;
11185;SDS011;5649;52.422;13.754;2022-11-15T15:17:07;14.17;;;8.20;;
11185;SDS011;5649;52.422;13.754;2022-11-15T15:19:33;13.73;;;7.17;;
11185;SDS011;5649;52.422;13.754;2022-11-15T15:22:00;13.63;;;7.30;;
11185;SDS011;5649;52.422;13.754;2022-11-15T15:24:26;20.87;;;7.30;;
11185;SDS011;5649;52.422;13.754;2022-11-15T15:26:52;21.00;;;9.43;;
11185;SDS011;5649;52.422;13.754;2022-11-15T15:29:18;14.07;;;7.57;;
11185;SDS011;5649;52.422;13.754;2022-11-15T15:31:44;21.13;;;7.63;;
11185;SDS011;5649;52.422;13.754;2022-11-15T15:34:10;17.30;;;9.00;;
11185;SDS011;5649;52.422;13.754;2022-11-15T15:36:36;25.33;;;8.60;;
11185;SDS011;5649;52.422;13.754;2022-11-15T15:39:02;25.20;;;10.80;;
11185;SDS011;5649;52.422;13.754;2022-11-15T15:41:28;25.70;;;13.00;;
11185;SDS011;5649;52.422;13.754;2022-11-15T15:43:54;17.27;;;9.00;;
11185;SDS011;5649;52.422;13.754;2022-11-15T15:46:20;29.30;;;9.67;;
11185;SDS011;5649;52.422;13.754;2022-11-15T15:48:46;14.17;;;7.27;;
11185;SDS011;5649;52.422;13.754;2022-11-15T15:51:12;14.97;;;8.47;;
11185;SDS011;5649;52.422;13.754;2022-11-15T15:53:38;18.27;;;8.70;;
11185;SDS011;5649;52.422;13.754;2022-11-15T15:56:05;17.77;;;8.57;;
11185;SDS011;5649;52.422;13.754;2022-11-15T15:58:33;24.57;;;10.93;;
11185;SDS011;5649;52.422;13.754;2022-11-15T16:00:59;19.70;;;9.47;;
11185;SDS011;5649;52.422;13.754;2022-11-15T16:03:25;16.03;;;9.03;;
11185;SDS011;5649;52.422;13.754;2022-11-15T16:05:52;17.63;;;9.73;;
11185;SDS011;5649;52.422;13.754;2022-11-15T16:08:19;18.60;;;10.30;;
11185;SDS011;5649;52.422;13.754;2022-11-15T16:10:46;27.10;;;13.53;;
11185;SDS011;5649;52.422;13.754;2022-11-15T16:13:12;12.93;;;8.97;;
11185;SDS011;5649;52.422;13.754;2022-11-15T16:15:38;16.50;;;10.23;;
11185;SDS011;5649;52.422;13.754;2022-11-15T16:18:04;13.53;;;8.20;;
11185;SDS011;5649;52.422;13.754;2022-11-15T16:23:03;20.83;;;8.90;;
11185;SDS011;5649;52.422;13.754;2022-11-15T16:25:31;18.10;;;9.17;;
11185;SDS011;5649;52.422;13.754;2022-11-15T16:27:57;25.37;;;10.30;;
11185;SDS011;5649;52.422;13.754;2022-11-15T16:30:23;19.27;;;10.23;;
11185;SDS011;5649;52.422;13.754;2022-11-15T16:32:49;44.93;;;19.20;;
11185;SDS011;5649;52.422;13.754;2022-11-15T16:35:16;19.97;;;10.87;;
11185;SDS011;5649;52.422;13.754;2022-11-15T16:37:42;21.77;;;10.57;;
11185;SDS011;5649;52.422;13.754;2022-11-15T16:42:44;23.77;;;12.33;;